Time;durP1;ratioP1;P1;durP2;ratioP2;P2;SDS_P1;SDS_P2;PMS_P1;PMS_P2;Temp;Humidity;BMP_temperature;BMP_pressure;BME280_temperature;BME280_humidity;BME280_pressure;Samples;Min_cycle;Max_cycle;Signal;HPM_P1;HPM_P2
2022/12/27 00:02:14;;;;;;;0.32;0.32;;;6.10;99.90;;;;;;4424629;32;20496;-66
2022/12/27 00:04:40;;;;;;;0.30;0.30;;;6.10;99.90;;;;;;4423877;32;20112;-66
2022/12/27 00:07:06;;;;;;;0.40;0.40;;;6.10;99.90;;;;;;4424231;32;20081;-66
2022/12/27 00:09:32;;;;;;;3.45;0.93;;;6.00;99.90;;;;;;4405412;32;20057;-65
2022/12/27 00:11:58;;;;;;;0.73;0.73;;;5.90;99.90;;;;;;4396849;32;20078;-65
2022/12/27 00:14:23;;;;;;;0.40;0.40;;;5.90;99.90;;;;;;4411354;32;20192;-66
2022/12/27 00:16:48;;;;;;;0.45;0.45;;;5.80;99.90;;;;;;4423854;32;20136;-66
2022/12/27 00:19:14;;;;;;;0.40;0.40;;;5.70;99.90;;;;;;4422540;32;20544;-65
2022/12/27 00:21:39;;;;;;;1.50;1.10;;;5.70;99.90;;;;;;4425282;32;20089;-66
2022/12/27 00:24:05;;;;;;;0.40;0.40;;;5.70;99.90;;;;;;4424414;32;20430;-66
2022/12/27 00:26:33;;;;;;;0.50;0.50;;;5.70;99.90;;;;;;4424785;32;20099;-65
2022/12/27 00:28:59;;;;;;;1.45;0.68;;;5.60;99.90;;;;;;4422596;32;20183;-66
2022/12/27 00:31:27;;;;;;;0.30;0.30;;;5.60;99.90;;;;;;4420204;32;20085;-66
2022/12/27 00:33:55;;;;;;;0.30;0.30;;;5.60;99.90;;;;;;4423079;32;20423;-66
2022/12/27 00:36:23;;;;;;;0.30;0.30;;;5.60;99.90;;;;;;4421966;32;20092;-66
2022/12/27 00:38:49;;;;;;;0.37;0.37;;;5.60;99.90;;;;;;4422650;32;20073;-66
2022/12/27 00:41:16;;;;;;;0.60;0.60;;;5.50;99.90;;;;;;4398699;32;20125;-65
2022/12/27 00:43:41;;;;;;;0.30;0.30;;;5.50;99.90;;;;;;4394419;32;20061;-66
2022/12/27 00:46:07;;;;;;;0.37;0.37;;;5.50;99.90;;;;;;4421133;32;20085;-66
2022/12/27 00:48:33;;;;;;;0.30;0.30;;;5.40;99.90;;;;;;4423240;32;20057;-66
2022/12/27 00:51:04;;;;;;;0.30;0.30;;;5.40;99.90;;;;;;4423646;32;20560;-65
2022/12/27 00:53:30;;;;;;;1.55;0.75;;;5.40;99.90;;;;;;4409289;32;20093;-66
2022/12/27 00:55:56;;;;;;;0.40;0.40;;;5.40;99.90;;;;;;4424911;32;20089;-66
2022/12/27 00:58:22;;;;;;;9.65;1.30;;;5.30;99.90;;;;;;4422495;32;20455;-66
2022/12/27 01:00:49;;;;;;;0.30;0.30;;;5.20;99.90;;;;;;4424227;32;20099;-66
2022/12/27 01:03:15;;;;;;;0.70;0.70;;;5.10;99.90;;;;;;4409003;32;20644;-65
2022/12/27 01:05:40;;;;;;;0.45;0.45;;;5.10;99.90;;;;;;4423139;32;20549;-66
2022/12/27 01:08:06;;;;;;;0.98;0.90;;;5.00;99.90;;;;;;4422394;32;20139;-66
2022/12/27 01:10:33;;;;;;;10.30;1.33;;;5.00;99.90;;;;;;4415162;32;20098;-65
2022/12/27 01:13:00;;;;;;;0.50;0.50;;;5.00;99.90;;;;;;4396045;32;20101;-65
2022/12/27 01:15:26;;;;;;;0.73;0.73;;;4.90;99.90;;;;;;4402639;32;20085;-65
2022/12/27 01:17:52;;;;;;;2.25;0.70;;;4.80;99.90;;;;;;4421301;32;20070;-66
2022/12/27 01:20:18;;;;;;;0.57;0.57;;;4.90;99.90;;;;;;4422874;32;20124;-66
2022/12/27 01:22:43;;;;;;;0.37;0.37;;;4.80;99.90;;;;;;4425307;32;20466;-65
2022/12/27 01:25:09;;;;;;;10.50;2.12;;;4.80;99.90;;;;;;4423913;32;20094;-66
2022/12/27 01:27:34;;;;;;;0.40;0.40;;;4.70;99.90;;;;;;4408723;32;20086;-65
2022/12/27 01:30:00;;;;;;;0.52;0.52;;;4.70;99.90;;;;;;4424261;32;20077;-63
2022/12/27 01:32:26;;;;;;;1.27;0.70;;;4.60;99.90;;;;;;4409759;32;20102;-65
2022/12/27 01:34:51;;;;;;;0.40;0.40;;;4.60;99.90;;;;;;4423520;32;20402;-66
2022/12/27 01:37:17;;;;;;;0.40;0.40;;;4.60;99.90;;;;;;4423328;32;20089;-65
2022/12/27 01:39:42;;;;;;;0.55;0.55;;;4.60;99.90;;;;;;4420544;32;20101;-65
2022/12/27 01:43:17;;;;;;;0.90;0.82;;;4.50;99.90;;;;;;4409617;32;20512;-65
2022/12/27 01:45:13;;;;;;;0.40;0.40;;;4.50;99.90;;;;;;4403805;32;20096;-66
2022/12/27 01:48:11;;;;;;;7.57;1.42;;;4.50;99.90;;;;;;4422759;32;20069;-65
2022/12/27 01:50:50;;;;;;;0.40;0.40;;;4.50;99.90;;;;;;4412023;32;20548;-66
2022/12/27 01:53:21;;;;;;;0.50;0.50;;;4.50;99.90;;;;;;4421768;32;20081;-66
2022/12/27 01:55:51;;;;;;;;;;;4.50;99.90;;;;;;4424516;32;20471;-66
2022/12/27 01:58:22;;;;;;;0.40;0.40;;;4.50;99.90;;;;;;4422749;32;19949;-65
2022/12/27 02:00:50;;;;;;;1.12;1.02;;;4.50;99.90;;;;;;4423737;32;20337;-66
2022/12/27 02:03:39;;;;;;;4.25;1.12;;;4.50;99.90;;;;;;4422874;32;20572;-65
2022/12/27 02:06:07;;;;;;;0.65;0.65;;;4.50;99.90;;;;;;4410104;32;20132;-66
2022/12/27 02:08:44;;;;;;;0.32;0.32;;;4.40;99.90;;;;;;4422889;32;20094;-66
2022/12/27 02:11:11;;;;;;;0.30;0.30;;;4.40;99.90;;;;;;4400687;32;20093;-65
2022/12/27 02:13:41;;;;;;;0.30;0.30;;;4.40;99.90;;;;;;4410837;32;20062;-65
2022/12/27 02:16:11;;;;;;;1.00;0.93;;;4.40;99.90;;;;;;4419296;32;20106;-65
2022/12/27 02:18:37;;;;;;;;;;;4.40;99.90;;;;;;4424225;32;20090;-65
2022/12/27 02:21:37;;;;;;;0.60;0.60;;;4.30;99.90;;;;;;4422788;32;20229;-66
2022/12/27 02:24:19;;;;;;;0.40;0.40;;;4.30;99.90;;;;;;4413549;32;20185;-65
2022/12/27 02:26:50;;;;;;;0.40;0.40;;;4.30;99.90;;;;;;4423073;32;20097;-66
2022/12/27 02:29:52;;;;;;;0.30;0.30;;;4.30;99.90;;;;;;4420617;32;20061;-66
2022/12/27 02:32:27;;;;;;;15.05;1.08;;;4.30;99.90;;;;;;4411399;32;20113;-65
2022/12/27 02:35:03;;;;;;;0.65;0.65;;;4.30;99.90;;;;;;4405650;32;20123;-66
2022/12/27 02:37:32;;;;;;;6.37;1.33;;;4.30;99.90;;;;;;4421271;32;20077;-66
2022/12/27 02:53:02;;;;;;;0.45;0.45;;;4.30;99.90;;;;;;4420376;32;20109;-65
2022/12/27 02:53:02;;;;;;;3.65;1.85;;;4.30;99.90;;;;;;4394145;32;20090;-65
2022/12/27 02:53:07;;;;;;;2.37;1.12;;;4.30;99.90;;;;;;4409349;32;20418;-65
2022/12/27 02:54:34;;;;;;;1.27;1.15;;;4.30;99.90;;;;;;4409780;32;20496;-66
2022/12/27 02:57:13;;;;;;;0.40;0.40;;;4.20;99.90;;;;;;4423655;32;20099;-66
2022/12/27 03:03:19;;;;;;;2.05;1.05;;;4.20;99.90;;;;;;4423691;32;20061;-66
2022/12/27 03:03:34;;;;;;;0.95;0.95;;;4.20;99.90;;;;;;4396067;32;20145;-65
2022/12/27 03:06:45;;;;;;;0.40;0.40;;;4.10;99.90;;;;;;4409702;32;20086;-66
2022/12/27 03:15:54;;;;;;;0.45;0.45;;;3.90;99.90;;;;;;4399545;32;20113;-65
2022/12/27 03:18:29;;;;;;;0.43;0.43;;;3.90;99.90;;;;;;4422099;32;20077;-66
2022/12/27 03:25:45;;;;;;;5.25;1.37;;;4.00;99.90;;;;;;4409357;32;20459;-66
2022/12/27 03:26:34;;;;;;;0.40;0.40;;;4.00;99.90;;;;;;4404145;32;20066;-66
2022/12/27 03:33:25;;;;;;;0.30;0.30;;;3.90;99.90;;;;;;4411528;32;20110;-65
2022/12/27 03:34:46;;;;;;;0.40;0.40;;;3.90;99.90;;;;;;4408939;32;20093;-66
2022/12/27 03:38:15;;;;;;;0.32;0.32;;;3.90;99.90;;;;;;4426689;32;20077;-65
2022/12/27 03:40:11;;;;;;;0.40;0.40;;;3.90;99.90;;;;;;4400027;32;20122;-65
2022/12/27 03:43:14;;;;;;;0.90;0.68;;;3.90;99.90;;;;;;4406588;32;20166;-65
2022/12/27 03:46:43;;;;;;;0.98;0.93;;;3.90;99.90;;;;;;4404777;32;20083;-65
2022/12/27 03:48:37;;;;;;;4.43;1.85;;;3.90;99.90;;;;;;4409042;32;20442;-65
2022/12/27 03:51:05;;;;;;;0.88;0.82;;;3.90;99.90;;;;;;4421326;32;20119;-66
2022/12/27 03:53:37;;;;;;;0.40;0.40;;;3.90;99.90;;;;;;4421343;32;20136;-66
2022/12/27 03:56:05;;;;;;;0.30;0.30;;;3.90;99.90;;;;;;4406159;32;20144;-66
2022/12/27 03:58:30;;;;;;;0.50;0.50;;;3.90;99.90;;;;;;4422122;32;20735;-65
2022/12/27 04:00:56;;;;;;;43.75;1.02;;;3.90;99.90;;;;;;4422438;32;20120;-66
2022/12/27 04:03:21;;;;;;;0.30;0.30;;;3.90;99.90;;;;;;4421058;32;20564;-66
2022/12/27 04:05:47;;;;;;;0.30;0.30;;;4.00;99.90;;;;;;4421981;32;20097;-66
2022/12/27 04:35:01;;;;;;;0.40;0.40;;;4.10;99.90;;;;;;4411508;32;20088;-65
2022/12/27 04:35:47;;;;;;;0.30;0.30;;;4.00;99.90;;;;;;4412170;32;20726;-65
2022/12/27 04:38:12;;;;;;;0.30;0.30;;;4.00;99.90;;;;;;4424051;32;20062;-66
2022/12/27 04:54:59;;;;;;;0.30;0.30;;;4.00;99.90;;;;;;4412911;32;20073;-65
2022/12/27 04:57:26;;;;;;;0.47;0.47;;;4.00;99.90;;;;;;4423628;32;20105;-65
2022/12/27 05:02:08;;;;;;;0.35;0.35;;;4.10;99.90;;;;;;4411234;32;20549;-65
2022/12/27 05:02:38;;;;;;;3.15;1.37;;;4.00;99.90;;;;;;4412143;32;20136;-66
2022/12/27 05:05:04;;;;;;;2.20;0.95;;;4.00;99.90;;;;;;4426280;32;20505;-65
2022/12/27 05:14:01;;;;;;;7.10;2.60;;;4.10;99.90;;;;;;4396172;32;20101;-65
2022/12/27 05:15:47;;;;;;;0.30;0.30;;;4.20;99.90;;;;;;4406324;32;20073;-66
2022/12/27 05:18:13;;;;;;;1.75;1.25;;;4.20;99.90;;;;;;4408938;32;20100;-65
2022/12/27 05:20:38;;;;;;;5.68;1.58;;;4.20;99.90;;;;;;4421799;32;20113;-65
2022/12/27 05:25:49;;;;;;;0.40;0.40;;;4.10;99.90;;;;;;4411977;32;20089;-66
2022/12/27 05:28:15;;;;;;;1.65;1.25;;;4.20;99.90;;;;;;4423466;32;20085;-65
2022/12/27 05:30:42;;;;;;;0.40;0.40;;;4.10;99.90;;;;;;4422707;32;20082;-66
2022/12/27 05:33:07;;;;;;;0.60;0.60;;;4.10;99.90;;;;;;4409179;32;20098;-66
2022/12/27 05:35:33;;;;;;;0.40;0.40;;;4.10;99.90;;;;;;4426366;32;20070;-66
2022/12/27 05:37:59;;;;;;;0.77;0.77;;;4.10;99.90;;;;;;4422405;32;20108;-66
2022/12/27 05:40:25;;;;;;;0.93;0.73;;;4.10;99.90;;;;;;4416989;32;20093;-65
2022/12/27 05:42:51;;;;;;;0.80;0.80;;;4.00;99.90;;;;;;4409140;32;20073;-65
2022/12/27 05:45:17;;;;;;;0.40;0.40;;;4.00;99.90;;;;;;4416985;32;20603;-66
2022/12/27 05:47:42;;;;;;;0.55;0.55;;;4.10;99.90;;;;;;4421919;32;20153;-66
2022/12/27 05:50:08;;;;;;;0.37;0.37;;;4.10;99.90;;;;;;4422141;32;20093;-66
2022/12/27 05:52:34;;;;;;;0.30;0.30;;;4.10;99.90;;;;;;4409125;32;20073;-66
2022/12/27 05:54:59;;;;;;;8.70;1.58;;;4.10;99.90;;;;;;4422164;32;20089;-66
2022/12/27 05:57:25;;;;;;;0.70;0.70;;;4.00;99.90;;;;;;4423029;32;20092;-66
2022/12/27 05:59:50;;;;;;;0.50;0.50;;;4.00;99.90;;;;;;4422717;32;20077;-66
2022/12/27 06:02:16;;;;;;;0.40;0.40;;;3.90;99.90;;;;;;4418044;32;21025;-65
2022/12/27 06:04:41;;;;;;;0.50;0.50;;;3.90;99.90;;;;;;4415117;32;20415;-65
2022/12/27 06:07:09;;;;;;;0.35;0.35;;;4.00;99.90;;;;;;4415661;32;20478;-66
2022/12/27 06:09:34;;;;;;;0.50;0.50;;;3.90;99.90;;;;;;4415456;32;20180;-65
2022/12/27 06:12:00;;;;;;;0.40;0.40;;;3.90;99.90;;;;;;4398651;32;20191;-66
2022/12/27 06:14:25;;;;;;;0.40;0.40;;;3.90;99.90;;;;;;4399085;32;20090;-65
2022/12/27 06:16:51;;;;;;;0.40;0.40;;;3.90;99.90;;;;;;4411706;32;20156;-65
2022/12/27 06:19:16;;;;;;;0.40;0.40;;;3.90;99.90;;;;;;4416343;32;20097;-65
2022/12/27 06:21:42;;;;;;;1.02;0.95;;;3.90;99.90;;;;;;4415568;32;20595;-65
2022/12/27 06:24:07;;;;;;;0.50;0.50;;;3.80;99.90;;;;;;4412452;32;20090;-64
2022/12/27 06:26:33;;;;;;;1.15;1.05;;;3.70;99.90;;;;;;4416388;32;20211;-65
2022/12/27 06:28:58;;;;;;;1.95;1.52;;;3.70;99.90;;;;;;4420652;32;20085;-66
2022/12/27 06:31:25;;;;;;;0.40;0.40;;;3.80;99.90;;;;;;4419891;32;20097;-66
2022/12/27 06:33:51;;;;;;;0.62;0.47;;;3.80;99.90;;;;;;4398297;32;20540;-65
2022/12/27 06:36:19;;;;;;;0.40;0.40;;;3.80;99.90;;;;;;4415368;32;20658;-65
2022/12/27 06:38:45;;;;;;;0.40;0.40;;;3.80;99.90;;;;;;4421613;32;20077;-65
2022/12/27 06:41:14;;;;;;;0.50;0.50;;;3.70;99.90;;;;;;4413125;32;20117;-65
2022/12/27 06:43:40;;;;;;;0.37;0.37;;;3.70;99.90;;;;;;4403442;32;20483;-65
2022/12/27 06:46:09;;;;;;;0.75;0.75;;;3.70;99.90;;;;;;4398885;32;20310;-66
2022/12/27 06:48:35;;;;;;;1.27;1.02;;;3.80;99.90;;;;;;4420448;32;20066;-67
2022/12/27 06:51:05;;;;;;;5.50;1.35;;;3.80;99.90;;;;;;4406305;32;20098;-66
2022/12/27 06:53:30;;;;;;;0.40;0.40;;;3.80;99.90;;;;;;4410521;32;20182;-66
2022/12/27 06:55:56;;;;;;;0.50;0.50;;;3.90;99.90;;;;;;4423770;32;20145;-66
2022/12/27 06:58:21;;;;;;;0.50;0.50;;;3.80;99.90;;;;;;4421942;32;20128;-66
2022/12/27 07:00:46;;;;;;;0.62;0.62;;;3.80;99.90;;;;;;4422856;32;20404;-65
2022/12/27 07:03:12;;;;;;;0.32;0.32;;;3.80;99.90;;;;;;4412513;32;20069;-65
2022/12/27 07:05:38;;;;;;;0.40;0.40;;;3.80;99.90;;;;;;4412912;32;20152;-65
2022/12/27 07:08:04;;;;;;;0.70;0.70;;;3.80;99.90;;;;;;4420142;32;20069;-65
2022/12/27 07:10:30;;;;;;;0.50;0.50;;;3.90;99.90;;;;;;4401623;32;20061;-65
2022/12/27 07:12:56;;;;;;;0.40;0.40;;;3.80;99.90;;;;;;4402781;32;20096;-65
2022/12/27 07:15:22;;;;;;;0.50;0.50;;;3.80;99.90;;;;;;4394907;32;20507;-65
2022/12/27 07:17:47;;;;;;;0.43;0.43;;;3.80;99.90;;;;;;4419160;32;20095;-66
2022/12/27 07:20:13;;;;;;;0.40;0.40;;;3.90;99.90;;;;;;4407902;32;20088;-66
2022/12/27 07:22:39;;;;;;;0.50;0.50;;;3.80;99.90;;;;;;4408773;32;20073;-67
2022/12/27 07:25:04;;;;;;;1.45;1.27;;;3.90;99.90;;;;;;4423078;32;20868;-66
2022/12/27 07:27:34;;;;;;;0.40;0.40;;;3.90;99.90;;;;;;4420806;32;20128;-66
2022/12/27 07:30:00;;;;;;;0.40;0.40;;;3.80;99.90;;;;;;4422009;32;20552;-66
2022/12/27 07:32:25;;;;;;;0.93;0.52;;;3.90;99.90;;;;;;4413998;32;122823;-66
2022/12/27 07:34:51;;;;;;;0.50;0.50;;;3.90;99.90;;;;;;4412319;32;20520;-64
2022/12/27 07:37:16;;;;;;;0.57;0.57;;;3.90;99.90;;;;;;4414866;32;20065;-65
2022/12/27 07:39:42;;;;;;;0.40;0.40;;;4.00;99.90;;;;;;4420682;32;20426;-65
2022/12/27 07:42:08;;;;;;;0.43;0.43;;;3.90;99.90;;;;;;4406258;32;20256;-65
2022/12/27 07:44:33;;;;;;;0.40;0.40;;;3.90;99.90;;;;;;4403843;32;20808;-67
2022/12/27 07:46:59;;;;;;;0.40;0.40;;;3.90;99.90;;;;;;4415155;32;20053;-65
2022/12/27 07:49:24;;;;;;;0.40;0.40;;;3.90;99.90;;;;;;4420394;32;20117;-66
2022/12/27 07:51:49;;;;;;;0.40;0.40;;;3.90;99.90;;;;;;4420919;32;20114;-65
2022/12/27 07:54:15;;;;;;;15.20;0.80;;;4.00;99.90;;;;;;4411157;32;20140;-67
2022/12/27 07:56:40;;;;;;;0.40;0.40;;;4.00;99.90;;;;;;4420482;32;20121;-68
2022/12/27 07:59:11;;;;;;;0.40;0.40;;;4.00;99.90;;;;;;4421928;32;20093;-65
2022/12/27 08:02:02;;;;;;;6.72;1.20;;;4.10;99.90;;;;;;4398698;32;20150;-68
2022/12/27 08:04:22;;;;;;;0.40;0.40;;;4.10;99.90;;;;;;4404277;32;20539;-65
2022/12/27 08:06:48;;;;;;;2.60;1.08;;;4.10;99.90;;;;;;4419246;32;20064;-65
2022/12/27 08:09:17;;;;;;;2.45;1.25;;;4.20;99.90;;;;;;4422770;32;20054;-65
2022/12/27 08:11:43;;;;;;;1.85;0.93;;;4.20;99.90;;;;;;4396295;32;20142;-65
2022/12/27 08:14:08;;;;;;;0.80;0.80;;;4.20;99.90;;;;;;4402640;32;20061;-65
2022/12/27 08:16:34;;;;;;;0.35;0.35;;;4.30;99.90;;;;;;4415411;32;20134;-65
2022/12/27 08:18:59;;;;;;;0.77;0.77;;;4.30;99.90;;;;;;4424713;32;20457;-65
2022/12/27 08:21:25;;;;;;;0.40;0.40;;;4.30;99.90;;;;;;4425887;32;20135;-65
2022/12/27 08:23:50;;;;;;;1.95;1.48;;;4.40;99.90;;;;;;4426549;32;20057;-65
2022/12/27 08:26:16;;;;;;;0.85;0.85;;;4.50;99.90;;;;;;4424085;32;20225;-65
2022/12/27 08:28:41;;;;;;;1.37;0.82;;;4.50;99.90;;;;;;4424964;32;20065;-64
2022/12/27 08:31:08;;;;;;;0.30;0.30;;;4.50;99.90;;;;;;4409568;32;20158;-65
2022/12/27 08:33:35;;;;;;;0.50;0.50;;;4.60;99.90;;;;;;4400886;32;20151;-65
2022/12/27 08:36:10;;;;;;;0.50;0.50;;;4.60;99.90;;;;;;4418895;32;20168;-64
2022/12/27 08:38:35;;;;;;;0.45;0.45;;;4.60;99.90;;;;;;4423704;32;20092;-65
2022/12/27 08:41:01;;;;;;;0.40;0.40;;;4.60;99.90;;;;;;4416222;32;20842;-65
2022/12/27 08:43:28;;;;;;;0.47;0.47;;;4.70;99.90;;;;;;4400901;32;20185;-66
2022/12/27 08:46:01;;;;;;;0.50;0.50;;;4.70;99.90;;;;;;4397704;32;20538;-65
2022/12/27 08:48:26;;;;;;;0.57;0.57;;;4.80;99.90;;;;;;4423469;32;20195;-65
2022/12/27 08:50:52;;;;;;;0.40;0.40;;;4.80;99.90;;;;;;4423453;32;20085;-65
2022/12/27 08:53:17;;;;;;;0.40;0.40;;;4.90;99.90;;;;;;4423360;32;20094;-65
2022/12/27 08:55:43;;;;;;;0.47;0.47;;;4.90;99.90;;;;;;4424979;32;20073;-65
2022/12/27 08:58:10;;;;;;;0.30;0.30;;;4.90;99.90;;;;;;4422551;32;20136;-65
2022/12/27 09:00:36;;;;;;;0.40;0.40;;;4.90;99.90;;;;;;4424789;32;20227;-65
2022/12/27 09:03:02;;;;;;;0.40;0.40;;;5.00;99.90;;;;;;4415353;32;20122;-64
2022/12/27 09:05:28;;;;;;;0.43;0.43;;;5.00;99.90;;;;;;4399092;32;20129;-65
2022/12/27 09:07:54;;;;;;;0.62;0.62;;;5.00;99.90;;;;;;4420043;32;20545;-65
2022/12/27 09:10:20;;;;;;;4.00;1.17;;;5.00;99.90;;;;;;4406212;32;20564;-65
2022/12/27 09:12:46;;;;;;;0.50;0.50;;;5.00;99.90;;;;;;4404382;32;20176;-64
2022/12/27 09:15:12;;;;;;;0.40;0.40;;;5.10;99.90;;;;;;4406261;32;20058;-65
2022/12/27 09:17:38;;;;;;;0.65;0.65;;;5.20;99.90;;;;;;4403789;32;20061;-65
2022/12/27 09:20:05;;;;;;;0.40;0.40;;;5.20;99.90;;;;;;4421649;32;20228;-65
2022/12/27 09:22:30;;;;;;;0.70;0.70;;;5.30;99.90;;;;;;4427406;32;20101;-65
2022/12/27 09:24:56;;;;;;;0.52;0.52;;;5.30;99.90;;;;;;4423827;32;20065;-65
2022/12/27 09:27:21;;;;;;;2.72;0.77;;;5.20;99.90;;;;;;4423010;32;20065;-65
2022/12/27 09:29:47;;;;;;;1.00;0.98;;;5.30;99.90;;;;;;4422646;32;20066;-64
2022/12/27 09:32:12;;;;;;;0.70;0.70;;;5.40;99.90;;;;;;4420162;32;20491;-65
2022/12/27 09:34:38;;;;;;;1.95;0.70;;;5.50;99.90;;;;;;4413578;32;20065;-65
2022/12/27 09:37:03;;;;;;;0.50;0.50;;;5.70;99.90;;;;;;4418517;32;20093;-65
2022/12/27 09:39:29;;;;;;;0.40;0.40;;;5.60;99.90;;;;;;4409793;32;20548;-65
2022/12/27 09:42:10;;;;;;;0.30;0.30;;;5.50;99.90;;;;;;4406634;32;20251;-65
2022/12/27 09:44:57;;;;;;;0.30;0.30;;;5.40;99.90;;;;;;4404595;32;20073;-66
2022/12/27 09:47:39;;;;;;;0.70;0.70;;;5.40;99.90;;;;;;4417385;32;20082;-66
2022/12/27 09:50:11;;;;;;;1.15;0.82;;;5.40;99.90;;;;;;4421493;32;20156;-65
2022/12/27 09:52:44;;;;;;;0.40;0.40;;;5.40;99.90;;;;;;4421871;32;20465;-65
2022/12/27 09:55:18;;;;;;;0.57;0.45;;;5.40;99.90;;;;;;4424913;32;20151;-66
2022/12/27 09:57:45;;;;;;;0.30;0.30;;;5.50;99.90;;;;;;4423474;32;20129;-65
2022/12/27 10:00:16;;;;;;;0.40;0.40;;;5.60;99.90;;;;;;4423016;32;20617;-66
2022/12/27 10:02:43;;;;;;;0.40;0.40;;;5.70;99.90;;;;;;4416264;32;20413;-65
2022/12/27 10:05:16;;;;;;;0.60;0.60;;;5.80;99.90;;;;;;4414352;32;20106;-65
2022/12/27 10:07:58;;;;;;;0.32;0.32;;;5.90;99.90;;;;;;4420046;32;20066;-66
2022/12/27 10:10:42;;;;;;;2.10;0.60;;;6.00;99.90;;;;;;4403866;32;20536;-65
2022/12/27 10:13:23;;;;;;;0.57;0.57;;;6.00;99.90;;;;;;4387407;32;20724;-65
2022/12/27 10:16:14;;;;;;;0.43;0.43;;;6.00;99.90;;;;;;4410791;32;20096;-65
2022/12/27 10:18:57;;;;;;;0.47;0.47;;;6.00;99.90;;;;;;4417922;32;20089;-66
2022/12/27 10:21:25;;;;;;;0.57;0.57;;;6.10;99.90;;;;;;4421086;32;20092;-66
2022/12/27 10:24:21;;;;;;;0.62;0.62;;;6.20;99.90;;;;;;4424318;32;20533;-66
2022/12/27 10:26:47;;;;;;;0.40;0.40;;;6.30;99.90;;;;;;4414451;32;21668;-65
2022/12/27 10:29:24;;;;;;;0.40;0.40;;;6.20;99.90;;;;;;4423533;32;20200;-65
2022/12/27 10:31:50;;;;;;;0.30;0.30;;;6.20;99.90;;;;;;4420116;32;20140;-65
2022/12/27 10:34:22;;;;;;;0.45;0.45;;;6.20;99.90;;;;;;4395748;32;20089;-65
2022/12/27 10:36:49;;;;;;;0.40;0.40;;;6.20;99.90;;;;;;4412939;32;20070;-66
2022/12/27 10:39:18;;;;;;;0.30;0.30;;;6.20;99.90;;;;;;4421223;32;20540;-66
2022/12/27 10:42:12;;;;;;;0.40;0.40;;;6.20;99.90;;;;;;4393938;32;20469;-65
2022/12/27 10:44:37;;;;;;;0.30;0.30;;;6.20;99.90;;;;;;4393665;32;20213;-64
2022/12/27 10:47:03;;;;;;;0.40;0.40;;;6.30;99.90;;;;;;4414145;32;20140;-65
2022/12/27 10:49:31;;;;;;;0.30;0.30;;;6.40;99.90;;;;;;4420467;32;20175;-65
2022/12/27 10:52:07;;;;;;;0.30;0.30;;;6.40;99.90;;;;;;4420245;32;20616;-65
2022/12/27 10:54:32;;;;;;;0.85;0.82;;;6.30;99.90;;;;;;4423674;32;20429;-64
2022/12/27 10:57:24;;;;;;;0.30;0.30;;;6.20;99.90;;;;;;4422988;32;20125;-65
2022/12/27 11:00:18;;;;;;;0.40;0.40;;;6.10;99.90;;;;;;4409729;32;20105;-65
2022/12/27 11:02:54;;;;;;;0.30;0.30;;;6.20;99.90;;;;;;4405359;32;20478;-65
2022/12/27 11:05:24;;;;;;;0.50;0.50;;;6.30;99.90;;;;;;4400068;32;20069;-64
2022/12/27 11:07:50;;;;;;;0.80;0.80;;;6.30;99.90;;;;;;4416628;32;20058;-66
2022/12/27 11:10:20;;;;;;;7.50;1.37;;;6.20;99.90;;;;;;4414812;32;20114;-65
2022/12/27 11:13:03;;;;;;;0.32;0.32;;;6.20;99.90;;;;;;4402012;32;20504;-65
2022/12/27 11:15:36;;;;;;;0.50;0.50;;;6.20;99.90;;;;;;4406651;32;20089;-65
2022/12/27 11:18:09;;;;;;;0.50;0.50;;;6.20;99.90;;;;;;4419490;32;20124;-66
2022/12/27 11:20:43;;;;;;;2.12;1.25;;;6.30;99.90;;;;;;4420166;32;20085;-65
2022/12/27 11:23:12;;;;;;;0.37;0.37;;;6.30;99.90;;;;;;4420525;32;20131;-65
2022/12/27 11:25:55;;;;;;;0.70;0.70;;;6.30;99.90;;;;;;4420782;32;20587;-66
2022/12/27 11:28:38;;;;;;;0.77;0.77;;;6.20;99.90;;;;;;4423713;32;20078;-66
2022/12/27 11:31:07;;;;;;;0.68;0.57;;;6.20;99.90;;;;;;4421718;32;20394;-66
2022/12/27 11:33:38;;;;;;;0.40;0.40;;;6.20;99.90;;;;;;4412476;32;20608;-65
2022/12/27 11:36:05;;;;;;;0.57;0.57;;;6.20;99.90;;;;;;4412756;32;20188;-66
2022/12/27 11:38:33;;;;;;;0.30;0.30;;;6.20;99.90;;;;;;4425259;32;20533;-66
2022/12/27 11:41:01;;;;;;;1.17;0.73;;;6.10;99.90;;;;;;4414738;32;20113;-66
2022/12/27 11:43:32;;;;;;;0.32;0.32;;;6.20;99.90;;;;;;4401847;32;20081;-65
2022/12/27 11:46:02;;;;;;;0.77;0.73;;;6.20;99.90;;;;;;4412864;32;20251;-64
2022/12/27 11:48:31;;;;;;;0.40;0.40;;;6.30;99.90;;;;;;4408711;32;20399;-66
2022/12/27 11:51:19;;;;;;;0.60;0.60;;;6.30;99.90;;;;;;4423603;32;20142;-66
2022/12/27 11:54:12;;;;;;;3.28;1.00;;;6.30;99.90;;;;;;4411529;32;20195;-66
2022/12/27 11:56:46;;;;;;;0.40;0.40;;;6.40;99.90;;;;;;4411771;32;20122;-66
2022/12/27 11:59:22;;;;;;;0.30;0.30;;;6.50;99.90;;;;;;4413023;32;20114;-66
2022/12/27 12:02:05;;;;;;;0.30;0.30;;;6.70;99.90;;;;;;4407288;32;20118;-66
2022/12/27 12:05:02;;;;;;;0.40;0.40;;;6.90;99.90;;;;;;4400250;32;20171;-66
2022/12/27 12:07:49;;;;;;;0.50;0.50;;;6.90;99.90;;;;;;4408777;32;20610;-65
2022/12/27 12:10:36;;;;;;;0.50;0.50;;;6.80;99.90;;;;;;4408789;32;20078;-65
2022/12/27 12:13:28;;;;;;;0.40;0.40;;;6.70;99.90;;;;;;4390862;32;20074;-66
2022/12/27 12:16:08;;;;;;;0.30;0.30;;;6.60;99.90;;;;;;4399354;32;20073;-65
2022/12/27 12:18:42;;;;;;;0.30;0.30;;;6.60;99.90;;;;;;4423560;32;20140;-66
2022/12/27 12:21:24;;;;;;;0.30;0.30;;;6.50;99.90;;;;;;4424266;32;20120;-66
2022/12/27 12:24:29;;;;;;;0.40;0.40;;;6.50;99.90;;;;;;4424322;32;20147;-66
2022/12/27 12:27:16;;;;;;;0.30;0.30;;;6.60;99.90;;;;;;4407104;32;20066;-65
2022/12/27 12:30:18;;;;;;;1.02;0.75;;;6.70;99.90;;;;;;4411852;32;20093;-66
2022/12/27 12:33:12;;;;;;;0.52;0.52;;;6.80;99.90;;;;;;4421109;32;20259;-65
2022/12/27 12:35:52;;;;;;;0.70;0.70;;;6.70;99.90;;;;;;4416592;32;20533;-65
2022/12/27 12:38:26;;;;;;;0.45;0.45;;;6.60;99.90;;;;;;4420698;32;20097;-65
2022/12/27 12:41:24;;;;;;;1.23;0.98;;;6.50;99.90;;;;;;4400764;32;20481;-64
2022/12/27 12:44:05;;;;;;;0.30;0.30;;;6.50;99.90;;;;;;4389111;32;20577;-64
2022/12/27 12:46:36;;;;;;;;;;;6.50;99.90;;;;;;4416441;32;20065;-64
2022/12/27 12:49:27;;;;;;;1.75;1.50;;;6.60;99.90;;;;;;4423655;32;19994;-65
2022/12/27 12:52:28;;;;;;;1.77;0.95;;;6.60;99.90;;;;;;4411984;32;20066;-66
2022/12/27 12:54:55;;;;;;;1.10;0.88;;;6.90;99.90;;;;;;4400761;32;20136;-64
2022/12/27 12:57:53;;;;;;;3.83;1.80;;;6.90;99.90;;;;;;4415696;32;20108;-65
2022/12/27 13:00:53;;;;;;;0.40;0.40;;;6.80;99.90;;;;;;4412244;32;20110;-65
2022/12/27 13:03:42;;;;;;;0.30;0.30;;;7.10;99.90;;;;;;4399873;32;20839;-65
2022/12/27 13:06:40;;;;;;;0.60;0.60;;;7.20;99.90;;;;;;4412768;32;20845;-65
2022/12/27 13:09:30;;;;;;;0.40;0.40;;;7.20;99.90;;;;;;4412618;32;20109;-66
2022/12/27 13:12:03;;;;;;;0.30;0.30;;;7.40;99.90;;;;;;4391158;32;20122;-64
2022/12/27 13:15:02;;;;;;;0.50;0.50;;;7.30;99.90;;;;;;4402472;32;20533;-65
2022/12/27 13:17:48;;;;;;;0.40;0.40;;;7.40;99.90;;;;;;4410903;32;20081;-65
2022/12/27 13:20:19;;;;;;;0.88;0.88;;;7.30;99.90;;;;;;4409990;32;20072;-65
2022/12/27 13:23:01;;;;;;;0.55;0.55;;;7.20;99.90;;;;;;4423867;32;20714;-66
2022/12/27 13:25:38;;;;;;;0.50;0.50;;;7.10;99.90;;;;;;4423356;32;20101;-65
2022/12/27 13:28:29;;;;;;;3.00;1.15;;;7.10;99.90;;;;;;4426084;32;20097;-66
2022/12/27 13:31:05;;;;;;;3.17;0.95;;;7.00;99.90;;;;;;4413422;32;20116;-65
2022/12/27 13:33:52;;;;;;;0.60;0.60;;;7.10;99.90;;;;;;4397548;32;20082;-64
2022/12/27 13:36:26;;;;;;;0.73;0.73;;;7.00;99.90;;;;;;4402342;32;20094;-65
2022/12/27 13:39:22;;;;;;;0.70;0.70;;;7.10;99.90;;;;;;4425633;32;20061;-65
2022/12/27 13:42:01;;;;;;;0.57;0.57;;;7.20;99.90;;;;;;4395145;32;20100;-65
2022/12/27 13:45:06;;;;;;;0.50;0.50;;;7.10;99.90;;;;;;4386410;32;20094;-66
2022/12/27 13:47:46;;;;;;;0.65;0.65;;;7.00;99.90;;;;;;4397430;32;20122;-66
2022/12/27 13:50:30;;;;;;;0.30;0.30;;;6.90;99.90;;;;;;4421382;32;20619;-66
2022/12/27 13:53:36;;;;;;;0.30;0.30;;;6.90;99.90;;;;;;4407676;32;20076;-65
2022/12/27 13:56:11;;;;;;;0.30;0.30;;;6.80;99.90;;;;;;4402878;32;20517;-66
2022/12/27 13:58:57;;;;;;;0.62;0.62;;;6.80;99.90;;;;;;4424101;32;20097;-66
2022/12/27 14:01:40;;;;;;;0.40;0.40;;;6.70;99.90;;;;;;4423124;32;20124;-65
2022/12/27 14:04:27;;;;;;;0.55;0.55;;;6.70;99.90;;;;;;4412152;32;20147;-66
2022/12/27 14:07:22;;;;;;;0.55;0.55;;;6.60;99.90;;;;;;4405147;32;20105;-65
2022/12/27 14:10:07;;;;;;;0.30;0.30;;;6.60;99.90;;;;;;4411443;32;20156;-66
2022/12/27 14:12:48;;;;;;;0.32;0.32;;;6.50;99.90;;;;;;4390271;32;20069;-65
2022/12/27 14:15:18;;;;;;;1.60;0.80;;;6.40;99.90;;;;;;4404432;32;20101;-64
2022/12/27 14:18:07;;;;;;;0.30;0.30;;;6.40;99.90;;;;;;4404909;32;20076;-65
2022/12/27 14:20:44;;;;;;;3.53;1.00;;;6.40;99.90;;;;;;4407276;32;20094;-65
2022/12/27 14:23:38;;;;;;;2.85;1.05;;;6.30;99.90;;;;;;4422220;32;20458;-64
2022/12/27 14:26:32;;;;;;;0.30;0.30;;;6.30;99.90;;;;;;4410733;32;20061;-65
2022/12/27 14:29:30;;;;;;;0.40;0.40;;;6.20;99.90;;;;;;4423535;32;20091;-65
2022/12/27 14:32:18;;;;;;;0.88;0.88;;;6.20;99.90;;;;;;4407648;32;20108;-65
2022/12/27 14:35:21;;;;;;;0.30;0.30;;;6.10;99.90;;;;;;4410741;32;20446;-64
2022/12/27 14:38:07;;;;;;;0.40;0.40;;;6.10;99.90;;;;;;4403070;32;20089;-65